Time;durP1;ratioP1;P1;durP2;ratioP2;P2;SDS_P1;SDS_P2;PMS_P1;PMS_P2;Temp;Humidity;BMP_temperature;BMP_pressure;BME280_temperature;BME280_humidity;BME280_pressure;Samples;Min_cycle;Max_cycle;Signal;HPM_P1;HPM_P2
2020/12/01 00:00:37;;;;;;;84.45;35.60;;;;;;;-4.22;100.00;95413.78;10444856;28;20047;-76
2020/12/01 00:05:38;;;;;;;88.37;38.10;;;;;;;-4.20;100.00;95411.00;10444320;28;20035;-77
2020/12/01 00:10:39;;;;;;;74.40;31.30;;;;;;;-4.17;100.00;95416.75;10444440;28;20280;-77
2020/12/01 00:15:40;;;;;;;75.05;34.55;;;;;;;-3.92;100.00;95414.09;10444122;28;20138;-76
2020/12/01 00:20:40;;;;;;;84.70;33.90;;;;;;;-4.02;100.00;95414.28;10444122;28;20048;-76
2020/12/01 00:25:40;;;;;;;69.22;29.08;;;;;;;-3.88;100.00;95407.53;10450977;28;20129;-76
2020/12/01 00:30:42;;;;;;;72.25;31.15;;;;;;;-3.83;100.00;95407.84;10450739;28;20037;-76
2020/12/01 00:35:43;;;;;;;72.38;30.67;;;;;;;-3.87;100.00;95403.91;10450581;28;20060;-77
2020/12/01 00:40:43;;;;;;;61.85;29.38;;;;;;;-3.95;100.00;95410.00;10451279;28;20214;-77
2020/12/01 00:45:44;;;;;;;70.63;29.88;;;;;;;-4.15;100.00;95414.75;10450713;28;20033;-77
2020/12/01 00:50:45;;;;;;;89.97;33.75;;;;;;;-4.32;100.00;95411.31;10450585;28;20492;-76
2020/12/01 00:55:45;;;;;;;76.28;30.88;;;;;;;-4.18;100.00;95407.22;10449610;28;20029;-76
2020/12/01 01:00:46;;;;;;;66.22;30.58;;;;;;;-4.09;100.00;95407.22;10450067;28;20067;-76
2020/12/01 01:05:46;;;;;;;76.80;34.30;;;;;;;-4.26;100.00;95407.22;10450336;28;20488;-78
2020/12/01 01:10:47;;;;;;;70.85;31.83;;;;;;;-4.22;100.00;95399.84;10448966;28;20399;-77
2020/12/01 01:15:48;;;;;;;76.68;31.58;;;;;;;-4.18;100.00;95393.28;10450067;28;20135;-77
2020/12/01 01:20:48;;;;;;;68.95;31.35;;;;;;;-4.17;100.00;95392.28;10450352;28;20178;-77
2020/12/01 01:25:48;;;;;;;74.38;34.58;;;;;;;-4.29;100.00;95381.31;10450382;28;20033;-76
2020/12/01 01:30:49;;;;;;;69.30;31.60;;;;;;;-4.36;100.00;95372.47;10450492;28;20041;-77
2020/12/01 01:35:49;;;;;;;64.57;30.77;;;;;;;-4.35;100.00;95382.78;10448185;28;20029;-78
2020/12/01 01:40:57;;;;;;;69.43;30.20;;;;;;;-4.35;100.00;95382.78;10449564;28;20040;-76
2020/12/01 01:45:57;;;;;;;67.33;29.50;;;;;;;-4.29;100.00;95376.06;10449413;28;20191;-77
2020/12/01 01:51:13;;;;;;;67.88;31.42;;;;;;;-4.30;100.00;95377.88;10449310;28;20039;-75
2020/12/01 01:56:19;;;;;;;67.03;28.05;;;;;;;-4.42;100.00;95370.47;10448760;28;20094;-75
2020/12/01 02:01:23;;;;;;;75.22;30.30;;;;;;;-4.41;100.00;95377.38;10447867;28;20033;-75
2020/12/01 02:06:42;;;;;;;65.43;30.45;;;;;;;-4.50;100.00;95377.38;10447995;28;20029;-75
2020/12/01 02:11:44;;;;;;;68.03;31.08;;;;;;;-4.56;100.00;95367.53;10448605;28;20071;-75
2020/12/01 02:16:54;;;;;;;67.50;28.85;;;;;;;-4.59;100.00;95365.25;10447369;28;20462;-75
2020/12/01 02:21:58;;;;;;;55.58;23.63;;;;;;;-4.76;100.00;95372.28;10446677;28;20024;-75
2020/12/01 02:27:00;;;;;;;50.53;19.42;;;;;;;-4.81;100.00;95377.19;10447347;28;20476;-75
2020/12/01 02:32:05;;;;;;;37.53;17.15;;;;;;;-4.81;100.00;95364.91;10447791;28;20037;-75
2020/12/01 02:37:06;;;;;;;42.63;20.98;;;;;;;-5.12;100.00;95362.06;10447134;28;20416;-74
2020/12/01 02:42:12;;;;;;;47.15;22.85;;;;;;;-5.30;100.00;95356.94;10447270;28;20037;-77
2020/12/01 02:47:12;;;;;;;42.80;21.80;;;;;;;-5.23;100.00;95355.31;10446076;28;20707;-77
2020/12/01 02:52:20;;;;;;;62.70;26.98;;;;;;;-5.24;100.00;95358.91;10445145;28;20047;-77
2020/12/01 02:57:20;;;;;;;49.97;21.85;;;;;;;-5.22;100.00;95350.88;10446744;28;20549;-77
2020/12/01 03:02:20;;;;;;;47.75;22.48;;;;;;;-5.26;100.00;95347.78;10446686;28;20090;-75
2020/12/01 03:07:21;;;;;;;39.87;22.07;;;;;;;-5.24;100.00;95348.44;10446503;28;20154;-75
2020/12/01 03:12:21;;;;;;;52.60;29.10;;;;;;;-5.31;100.00;95352.69;10446380;28;20033;-75
2020/12/01 03:17:22;;;;;;;58.40;25.07;;;;;;;-5.58;100.00;95358.94;10445753;28;20045;-74
2020/12/01 03:22:22;;;;;;;60.03;24.53;;;;;;;-5.98;100.00;95373.53;10446092;28;20374;-75
2020/12/01 03:27:22;;;;;;;56.00;27.00;;;;;;;-6.07;100.00;95368.25;10446195;28;20283;-75
2020/12/01 03:32:24;;;;;;;53.35;27.30;;;;;;;-6.30;100.00;95367.91;10445903;28;20287;-75
2020/12/01 03:37:24;;;;;;;70.43;31.15;;;;;;;-6.74;100.00;95376.59;10446157;28;20507;-75
2020/12/01 03:42:24;;;;;;;62.45;27.05;;;;;;;-7.17;100.00;95365.06;10445088;28;20037;-75
2020/12/01 03:47:25;;;;;;;58.45;28.20;;;;;;;-7.34;100.00;95377.13;10444668;28;20570;-75
2020/12/01 03:52:25;;;;;;;59.97;23.73;;;;;;;-7.33;100.00;95381.38;10444107;28;20029;-75
2020/12/01 03:57:26;;;;;;;62.43;29.47;;;;;;;-7.32;100.00;95371.78;10447011;28;20698;-75
2020/12/01 04:02:26;;;;;;;66.43;27.90;;;;;;;-7.33;100.00;95377.94;10451548;28;20765;-75
2020/12/01 04:07:26;;;;;;;60.20;30.37;;;;;;;-7.71;100.00;95374.59;10451861;28;20812;-75
2020/12/01 04:12:28;;;;;;;74.32;32.45;;;;;;;-7.79;100.00;95378.72;10452084;28;20291;-75
2020/12/01 04:17:28;;;;;;;72.50;33.17;;;;;;;-7.69;100.00;95378.66;10450566;28;20065;-75
2020/12/01 04:22:28;;;;;;;63.87;30.33;;;;;;;-7.63;100.00;95383.31;10450327;28;20488;-75
2020/12/01 04:27:29;;;;;;;57.67;25.83;;;;;;;-7.78;100.00;95374.34;10455530;28;20823;-75
2020/12/01 04:32:29;;;;;;;51.25;26.63;;;;;;;-7.74;100.00;95380.91;10489897;28;20308;-75
2020/12/01 04:37:30;;;;;;;59.55;26.30;;;;;;;-7.87;100.00;95369.97;10486891;28;20037;-75
2020/12/01 04:42:31;;;;;;;52.88;24.73;;;;;;;-7.70;100.00;95374.44;10489594;28;20078;-75
2020/12/01 04:47:41;;;;;;;53.60;25.80;;;;;;;-7.77;100.00;95371.56;10488746;28;20036;-77
2020/12/01 04:52:58;;;;;;;49.00;23.88;;;;;;;-7.72;100.00;95371.13;10486983;28;20044;-75
2020/12/01 04:58:16;;;;;;;53.25;25.25;;;;;;;-7.72;100.00;95376.34;10489565;28;20032;-76
2020/12/01 05:03:53;;;;;;;49.60;23.95;;;;;;;-7.62;100.00;95376.31;10490589;28;20503;-76
2020/12/01 05:09:14;;;;;;;64.70;25.55;;;;;;;-7.67;100.00;95381.97;10462038;28;20044;-76
2020/12/01 05:14:20;;;;;;;56.80;24.10;;;;;;;-7.60;100.00;95369.16;10454880;28;20085;-76
2020/12/01 05:19:23;;;;;;;46.67;19.83;;;;;;;-7.70;100.00;95376.22;10446791;28;20044;-75
2020/12/01 05:24:35;;;;;;;57.60;28.13;;;;;;;-7.63;100.00;95372.03;10470986;28;20064;-78
2020/12/01 05:29:35;;;;;;;50.60;22.02;;;;;;;-7.78;100.00;95382.97;10493202;28;20029;-78
2020/12/01 05:34:36;;;;;;;53.83;23.90;;;;;;;-7.84;100.00;95377.50;10480593;28;20036;-75
2020/12/01 05:39:36;;;;;;;48.13;24.53;;;;;;;-8.11;100.00;95382.53;10483123;28;20322;-77
2020/12/01 05:44:36;;;;;;;44.70;22.73;;;;;;;-8.51;100.00;95388.84;10487534;28;20341;-73
2020/12/01 05:49:45;;;;;;;74.70;30.48;;;;;;;-8.60;100.00;95387.06;10488411;28;20275;-73
2020/12/01 05:54:49;;;;;;;84.28;30.48;;;;;;;-8.75;100.00;95381.44;10488433;28;20032;-73
2020/12/01 05:59:52;;;;;;;77.28;29.25;;;;;;;-8.80;100.00;95381.03;10489232;28;20058;-74
2020/12/01 06:04:55;;;;;;;70.90;26.70;;;;;;;-8.87;100.00;95388.56;10467392;28;20064;-73
2020/12/01 06:10:30;;;;;;;60.75;26.55;;;;;;;-8.46;100.00;95381.41;10448041;28;20377;-73
2020/12/01 06:15:33;;;;;;;64.30;25.95;;;;;;;-8.22;100.00;95374.88;10446297;28;20044;-74
2020/12/01 06:20:56;;;;;;;51.80;23.67;;;;;;;-8.14;100.00;95375.00;10447130;28;20033;-74
2020/12/01 06:26:46;;;;;;;59.70;24.92;;;;;;;-8.05;100.00;95370.72;10453557;28;20384;-73
2020/12/01 06:31:49;;;;;;;44.40;20.75;;;;;;;-8.17;100.00;95372.66;10447891;28;20032;-74
2020/12/01 06:37:33;;;;;;;50.10;21.60;;;;;;;-8.00;100.00;95371.09;10473785;28;20075;-73
2020/12/01 06:42:41;;;;;;;59.90;26.75;;;;;;;-7.91;100.00;95378.09;10449658;28;20041;-74
2020/12/01 06:47:42;;;;;;;60.33;27.60;;;;;;;-7.71;100.00;95378.00;10447075;28;20455;-74
2020/12/01 06:52:53;;;;;;;61.92;28.77;;;;;;;-7.63;100.00;95385.09;10479860;28;20035;-74
2020/12/01 06:57:54;;;;;;;67.03;32.80;;;;;;;-7.62;100.00;95378.91;10473690;28;20040;-74
2020/12/01 07:02:54;;;;;;;57.78;27.55;;;;;;;-7.45;100.00;95374.72;10480985;28;20070;-74
2020/12/01 07:07:55;;;;;;;64.05;30.15;;;;;;;-7.40;100.00;95382.94;10487701;28;20078;-74
2020/12/01 07:13:06;;;;;;;73.65;33.13;;;;;;;-7.17;100.00;95372.91;10480953;28;20087;-75
2020/12/01 07:18:24;;;;;;;81.40;35.10;;;;;;;-7.04;100.00;95373.34;10446358;28;20052;-75
2020/12/01 07:24:01;;;;;;;82.57;37.73;;;;;;;-6.93;100.00;95374.94;10460605;28;20047;-75
2020/12/01 07:29:26;;;;;;;86.28;36.90;;;;;;;-6.70;100.00;95370.09;10476767;28;20053;-74
2020/12/01 07:34:30;;;;;;;73.32;31.05;;;;;;;-6.42;100.00;95364.75;10494816;28;20037;-74
2020/12/01 07:39:31;;;;;;;71.07;29.45;;;;;;;-6.25;100.00;95359.59;10494768;28;20040;-78
2020/12/01 07:44:41;;;;;;;80.13;36.08;;;;;;;-6.01;100.00;95359.75;10495946;28;20500;-76
2020/12/01 07:49:42;;;;;;;66.45;31.48;;;;;;;-5.46;100.00;95346.41;10489316;28;20029;-75
2020/12/01 07:54:48;;;;;;;71.40;34.55;;;;;;;-5.05;100.00;95339.47;10483619;28;20032;-76
2020/12/01 07:59:50;;;;;;;81.38;34.78;;;;;;;-4.67;100.00;95339.03;10490457;28;20040;-76
2020/12/01 08:04:59;;;;;;;70.93;31.95;;;;;;;-4.19;100.00;95342.59;10485499;28;20155;-75
2020/12/01 08:10:02;;;;;;;87.25;36.88;;;;;;;-3.77;100.00;95332.81;10462881;28;20111;-75
2020/12/01 08:15:03;;;;;;;95.07;38.22;;;;;;;-3.51;100.00;95342.25;10472913;28;20163;-78
2020/12/01 08:20:06;;;;;;;81.32;37.17;;;;;;;-3.17;100.00;95326.13;10454887;28;20419;-75
2020/12/01 08:25:13;;;;;;;88.03;41.67;;;;;;;-2.74;100.00;95330.97;10475460;28;20666;-74
2020/12/01 08:30:40;;;;;;;96.67;40.80;;;;;;;-2.19;100.00;95322.97;10448902;28;20040;-76
2020/12/01 08:35:53;;;;;;;91.75;41.92;;;;;;;-2.04;100.00;95321.16;10445703;28;20130;-75
2020/12/01 08:41:44;;;;;;;95.28;37.88;;;;;;;-1.94;100.00;95326.16;10447340;28;20045;-75
2020/12/01 08:46:47;;;;;;;92.78;37.45;;;;;;;-1.73;100.00;95317.53;10433426;28;20052;-76
2020/12/01 08:52:02;;;;;;;118.07;47.40;;;;;;;-1.52;100.00;95316.00;10446729;28;20044;-75
2020/12/01 08:57:09;;;;;;;112.57;44.60;;;;;;;-1.34;100.00;95316.44;10457935;28;20053;-75
2020/12/01 09:02:11;;;;;;;126.28;46.88;;;;;;;-1.08;100.00;95302.72;10482580;28;20403;-75
2020/12/01 09:07:14;;;;;;;146.43;55.88;;;;;;;-1.00;100.00;95296.53;10485521;28;20036;-75
2020/12/01 09:17:40;;;;;;;171.45;67.60;;;;;;;-0.89;100.00;95288.13;10486642;28;20048;-75
2020/12/01 09:22:41;;;;;;;161.52;68.65;;;;;;;-0.87;100.00;95285.28;10480638;28;20110;-74
2020/12/01 09:27:42;;;;;;;157.18;66.95;;;;;;;-1.05;100.00;95264.63;10445494;28;20055;-75
2020/12/01 09:32:42;;;;;;;166.98;67.80;;;;;;;-0.86;100.00;95253.44;10480504;28;20411;-74
2020/12/01 09:37:43;;;;;;;144.13;58.42;;;;;;;-0.06;100.00;95240.03;10485772;28;20028;-75
2020/12/01 09:42:47;;;;;;;168.82;64.68;;;;;;;0.45;100.00;95241.50;10487056;28;20028;-76
2020/12/01 10:39:05;;;;;;;115.60;52.78;;;;;;;10.68;39.52;95156.16;10487297;28;20044;-72
2020/12/01 10:44:06;;;;;;;116.20;47.28;;;;;;;12.07;37.28;95140.16;10482525;28;20040;-72
2020/12/01 10:49:07;;;;;;;102.25;49.63;;;;;;;12.19;36.56;95131.78;10483449;28;20025;-72
2020/12/01 10:54:09;;;;;;;111.68;50.20;;;;;;;11.32;38.38;95143.41;10485442;28;20440;-72
2020/12/01 10:59:09;;;;;;;108.63;49.42;;;;;;;11.83;37.43;95139.09;10480923;28;20037;-72
2020/12/01 11:04:10;;;;;;;102.30;47.67;;;;;;;12.31;36.63;95131.50;10484668;28;20044;-72
2020/12/01 11:09:12;;;;;;;100.55;45.83;;;;;;;12.17;37.36;95119.66;10482583;28;20035;-72
2020/12/01 11:14:12;;;;;;;118.65;52.72;;;;;;;11.27;39.07;95119.16;10484100;28;20062;-72
2020/12/01 11:19:13;;;;;;;125.18;53.95;;;;;;;11.11;39.24;95110.28;10484401;28;20473;-72
2020/12/01 11:24:14;;;;;;;132.75;61.10;;;;;;;11.62;37.70;95093.31;10484425;28;20047;-72
2020/12/01 11:29:15;;;;;;;141.18;61.28;;;;;;;12.55;37.14;95075.06;10480282;28;20542;-72
2020/12/01 11:34:15;;;;;;;129.73;59.72;;;;;;;12.87;36.56;95071.13;10483422;28;20129;-71
2020/12/01 11:39:15;;;;;;;127.20;55.13;;;;;;;12.31;37.35;95077.59;10467398;28;20053;-72
2020/12/01 11:44:17;;;;;;;124.28;56.28;;;;;;;11.61;38.04;95062.91;10478700;28;20287;-72
2020/12/01 11:49:17;;;;;;;135.63;60.95;;;;;;;9.61;41.66;95062.38;10482147;28;20031;-72
2020/12/01 11:54:19;;;;;;;154.98;65.32;;;;;;;6.85;47.01;95073.84;10481303;28;20028;-73
2020/12/01 11:59:20;;;;;;;185.50;81.13;;;;;;;4.43;55.39;95079.25;10481744;28;20116;-71
2020/12/01 12:04:20;;;;;;;204.05;86.05;;;;;;;3.24;71.83;95075.09;10482895;28;20097;-71
2020/12/01 12:09:21;;;;;;;224.50;90.65;;;;;;;2.29;84.82;95065.38;10482869;28;20033;-71
2020/12/01 12:14:21;;;;;;;241.63;93.32;;;;;;;1.68;93.09;95057.69;10465463;28;20051;-73
2020/12/01 12:19:22;;;;;;;184.77;74.90;;;;;;;1.31;99.81;95057.41;10443695;28;20045;-72
2020/12/01 12:24:22;;;;;;;130.10;52.05;;;;;;;0.89;100.00;95053.38;10448171;28;20351;-72
2020/12/01 12:29:23;;;;;;;144.85;57.33;;;;;;;0.77;100.00;95069.88;10470894;28;20055;-71
2020/12/01 12:34:23;;;;;;;142.57;57.20;;;;;;;0.72;100.00;95064.38;10489480;28;20051;-71
2020/12/01 12:39:24;;;;;;;105.60;47.60;;;;;;;0.79;100.00;95057.25;10489337;28;20327;-71
2020/12/01 12:44:25;;;;;;;124.60;48.30;;;;;;;0.75;100.00;95053.38;10489958;28;20048;-72
2020/12/01 12:49:25;;;;;;;143.48;53.03;;;;;;;0.67;100.00;95051.75;10451379;28;20104;-72
2020/12/01 12:54:25;;;;;;;113.47;46.17;;;;;;;0.58;100.00;95060.09;10446752;28;20037;-72
2020/12/01 12:59:26;;;;;;;134.05;55.30;;;;;;;0.43;100.00;95055.00;10446550;28;20032;-72
2020/12/01 13:04:26;;;;;;;151.57;68.33;;;;;;;0.25;100.00;95055.56;10447463;28;20029;-71
2020/12/01 13:09:27;;;;;;;201.13;80.93;;;;;;;0.01;100.00;95068.31;10474208;28;20290;-71
2020/12/01 13:14:28;;;;;;;176.05;74.10;;;;;;;-0.20;100.00;95056.88;10487893;28;20372;-72
2020/12/01 13:19:29;;;;;;;174.50;68.47;;;;;;;-0.47;100.00;95055.16;10484952;28;20036;-73
2020/12/01 13:24:30;;;;;;;164.27;66.63;;;;;;;-0.69;100.00;95060.50;10490548;28;20032;-73
2020/12/01 13:29:31;;;;;;;172.68;63.33;;;;;;;-0.94;100.00;95055.69;10458333;28;20119;-71
2020/12/01 13:34:31;;;;;;;174.20;67.40;;;;;;;-1.22;100.00;95056.50;10482884;28;20054;-72
2020/12/01 13:39:32;;;;;;;184.60;73.00;;;;;;;-1.26;100.00;95047.34;10462955;28;20159;-72
2020/12/01 13:44:33;;;;;;;178.43;75.25;;;;;;;-1.46;100.00;95041.13;10483477;28;20150;-72
2020/12/01 13:49:33;;;;;;;184.98;72.40;;;;;;;-1.63;100.00;95037.91;10486873;28;20441;-72
2020/12/01 13:54:34;;;;;;;197.43;74.97;;;;;;;-1.79;100.00;95037.19;10487220;28;20090;-72
2020/12/01 13:59:34;;;;;;;192.90;74.22;;;;;;;-1.91;100.00;95028.97;10487284;28;20040;-72
2020/12/01 14:04:34;;;;;;;207.77;78.03;;;;;;;-2.09;100.00;95025.97;10486273;28;20491;-72
2020/12/01 14:09:35;;;;;;;241.57;92.32;;;;;;;-2.34;100.00;95031.56;10486723;28;20607;-73
2020/12/01 14:14:36;;;;;;;228.20;92.10;;;;;;;-2.82;100.00;95028.56;10487093;28;20167;-71
2020/12/01 14:19:36;;;;;;;237.35;94.95;;;;;;;-2.71;100.00;95035.97;10471640;28;20051;-71
2020/12/01 14:24:37;;;;;;;263.73;102.55;;;;;;;-2.99;100.00;95030.56;10458225;28;20487;-71
2020/12/01 14:29:37;;;;;;;267.35;104.43;;;;;;;-2.86;100.00;95030.75;10482327;28;20043;-72
2020/12/01 14:34:38;;;;;;;273.30;101.72;;;;;;;-2.89;100.00;95030.28;10481702;28;20059;-71
2020/12/01 14:39:43;;;;;;;251.57;98.00;;;;;;;-2.84;100.00;95038.44;10483158;28;20398;-72
2020/12/01 14:44:44;;;;;;;253.75;97.97;;;;;;;-2.89;100.00;95046.06;10478836;28;20024;-72
2020/12/01 14:50:08;;;;;;;271.13;100.05;;;;;;;-3.13;100.00;95055.84;10481305;28;20182;-71
2020/12/01 14:55:26;;;;;;;240.00;90.93;;;;;;;-3.14;100.00;95059.47;10448818;28;20052;-73
2020/12/01 15:00:55;;;;;;;257.57;101.00;;;;;;;-3.29;100.00;95065.53;10484483;28;20041;-74
2020/12/01 15:06:25;;;;;;;;;;;;;;;-3.31;100.00;95067.53;10473639;28;20028;-72
2020/12/01 15:11:28;;;;;;;;;;;;;;;-3.42;100.00;95067.94;10455412;28;19917;-72
2020/12/01 15:16:34;;;;;;;253.88;97.53;;;;;;;-3.58;100.00;95076.78;10462773;28;20015;-72
2020/12/01 15:21:55;;;;;;;227.90;93.03;;;;;;;-3.53;100.00;95073.63;10455592;28;20044;-72
2020/12/01 15:26:55;;;;;;;233.00;90.65;;;;;;;-3.54;100.00;95079.88;10471131;28;20065;-73
2020/12/01 15:31:56;;;;;;;224.20;92.68;;;;;;;-3.55;100.00;95086.13;10441806;28;20915;-72
2020/12/01 15:36:57;;;;;;;213.75;87.18;;;;;;;-3.58;100.00;95089.91;10464312;28;20028;-74
2020/12/01 15:42:00;;;;;;;214.80;92.72;;;;;;;-3.65;100.00;95089.00;10459802;28;20388;-73
2020/12/01 15:47:06;;;;;;;229.60;91.18;;;;;;;-3.65;100.00;95089.00;10480499;28;20087;-73
2020/12/01 15:52:27;;;;;;;210.75;90.75;;;;;;;-3.71;100.00;95095.75;10489086;28;20048;-74
2020/12/01 15:57:48;;;;;;;218.82;89.55;;;;;;;-3.72;100.00;95088.88;10467842;28;20120;-74
2020/12/01 16:03:25;;;;;;;201.35;89.80;;;;;;;-3.68;100.00;95087.53;10483620;28;20446;-74
2020/12/01 16:08:28;;;;;;;224.48;97.22;;;;;;;-3.66;100.00;95093.41;10469601;28;20041;-75
2020/12/01 16:13:37;;;;;;;231.30;95.32;;;;;;;-3.65;100.00;95087.16;10467170;28;20036;-75
2020/12/01 16:18:53;;;;;;;228.05;99.80;;;;;;;-3.69;100.00;95093.75;10482645;28;20037;-74
2020/12/01 16:23:56;;;;;;;249.80;109.57;;;;;;;-3.79;100.00;95086.13;10487801;28;20466;-73
2020/12/01 16:29:08;;;;;;;227.48;94.63;;;;;;;-3.70;100.00;95086.88;10481604;28;20024;-72
2020/12/01 16:34:12;;;;;;;241.73;109.75;;;;;;;-3.70;100.00;95084.25;10489211;28;20063;-72
2020/12/01 16:39:14;;;;;;;246.95;108.25;;;;;;;-3.68;100.00;95094.59;10484605;28;20960;-72
2020/12/01 16:44:24;;;;;;;254.07;119.00;;;;;;;-3.82;100.00;95104.06;10482892;28;20423;-72
2020/12/01 16:49:48;;;;;;;232.00;105.15;;;;;;;-3.87;100.00;95111.63;10481580;28;20036;-73
2020/12/01 16:55:31;;;;;;;197.65;88.35;;;;;;;-3.96;100.00;95110.88;10480814;28;20075;-72
2020/12/01 17:00:43;;;;;;;182.23;81.97;;;;;;;-4.02;100.00;95115.00;10481922;28;20154;-71
2020/12/01 17:06:02;;;;;;;159.82;69.13;;;;;;;-4.01;100.00;95118.44;10484885;28;20098;-72
2020/12/01 17:11:03;;;;;;;174.25;74.95;;;;;;;-4.05;100.00;95109.28;10484224;28;20032;-72
2020/12/01 17:16:25;;;;;;;108.20;47.67;;;;;;;-3.80;100.00;95117.81;10477511;28;20052;-73
2020/12/01 17:21:26;;;;;;;139.57;60.60;;;;;;;-3.80;100.00;95123.88;10464304;28;20444;-73
2020/12/01 17:26:28;;;;;;;109.38;51.55;;;;;;;-3.72;100.00;95125.63;10466741;28;20036;-73
2020/12/01 17:31:38;;;;;;;86.88;46.80;;;;;;;-3.61;100.00;95132.31;10487779;28;20032;-74
2020/12/01 17:36:49;;;;;;;66.72;30.60;;;;;;;-3.58;100.00;95134.56;10480428;28;20028;-74
2020/12/01 17:42:18;;;;;;;68.15;33.60;;;;;;;-3.61;100.00;95138.38;10477559;28;20040;-74
2020/12/01 17:47:35;;;;;;;65.63;28.85;;;;;;;-3.57;100.00;95133.59;10457451;28;20636;-75
2020/12/01 17:52:47;;;;;;;69.93;27.27;;;;;;;-3.58;100.00;95139.03;10446740;28;20039;-75
2020/12/01 17:57:48;;;;;;;60.78;30.85;;;;;;;-3.50;100.00;95146.81;10455441;28;20101;-73
2020/12/01 18:02:50;;;;;;;72.78;31.83;;;;;;;-3.42;100.00;95156.47;10481384;28;20790;-75
2020/12/01 18:08:05;;;;;;;79.13;35.15;;;;;;;-3.45;100.00;95152.38;10486866;28;20039;-74
2020/12/01 18:13:09;;;;;;;84.80;35.28;;;;;;;-3.33;100.00;95145.72;10475896;28;20047;-74
2020/12/01 18:18:29;;;;;;;80.53;33.85;;;;;;;-3.31;100.00;95156.03;10442901;28;20588;-74
2020/12/01 18:23:58;;;;;;;74.57;32.38;;;;;;;-3.40;100.00;95163.19;10442749;28;20045;-75
2020/12/01 18:29:05;;;;;;;74.28;33.50;;;;;;;-3.28;100.00;95174.94;10452999;28;20119;-74
2020/12/01 18:34:15;;;;;;;64.68;31.23;;;;;;;-3.31;100.00;95177.06;10483573;28;20044;-75
2020/12/01 18:39:16;;;;;;;77.65;31.33;;;;;;;-3.42;100.00;95167.78;10486518;28;20040;-75
2020/12/01 18:44:26;;;;;;;74.72;30.38;;;;;;;-3.37;100.00;95186.47;10481248;28;20036;-75
2020/12/01 18:49:28;;;;;;;77.40;33.75;;;;;;;-3.42;100.00;95178.28;10478370;28;20086;-75
2020/12/01 18:54:30;;;;;;;64.32;29.35;;;;;;;-3.42;100.00;95183.53;10480345;28;20036;-74
2020/12/01 18:59:31;;;;;;;54.47;24.83;;;;;;;-3.44;100.00;95185.53;10470821;28;20132;-74
2020/12/01 19:04:32;;;;;;;60.60;25.00;;;;;;;-3.51;100.00;95195.13;10469476;28;20040;-75
2020/12/01 19:09:33;;;;;;;60.13;27.13;;;;;;;-3.60;100.00;95191.72;10481941;28;20120;-74
2020/12/01 19:14:34;;;;;;;90.00;46.85;;;;;;;-3.60;100.00;95191.72;10481781;28;20059;-75
2020/12/01 19:19:35;;;;;;;85.65;35.92;;;;;;;-3.65;100.00;95189.63;10447224;28;20160;-74
2020/12/01 19:24:36;;;;;;;64.43;31.13;;;;;;;-3.71;100.00;95185.06;10442126;28;20037;-74
2020/12/01 19:29:37;;;;;;;62.80;25.45;;;;;;;-3.68;100.00;95192.59;10509181;28;20104;-72
2020/12/01 19:34:38;;;;;;;53.10;23.77;;;;;;;-3.72;100.00;95195.75;10480841;28;20544;-72
2020/12/01 19:39:39;;;;;;;46.92;23.58;;;;;;;-3.73;100.00;95197.53;10477788;28;20036;-73
2020/12/01 19:44:40;;;;;;;52.50;24.23;;;;;;;-3.82;100.00;95196.78;10482796;28;20041;-71
2020/12/01 19:49:41;;;;;;;57.17;24.58;;;;;;;-3.91;100.00;95208.28;10454701;28;20073;-72
2020/12/01 19:54:42;;;;;;;48.13;21.00;;;;;;;-3.86;100.00;95198.09;10450008;28;20075;-72
2020/12/01 19:59:45;;;;;;;41.25;21.50;;;;;;;-3.83;100.00;95202.19;10441528;28;20225;-72
2020/12/01 20:04:45;;;;;;;45.15;19.30;;;;;;;-3.86;100.00;95198.09;10441388;28;20040;-72
2020/12/01 20:09:46;;;;;;;39.70;20.20;;;;;;;-3.87;100.00;95206.97;10441915;28;20082;-72
2020/12/01 20:14:47;;;;;;;48.95;24.65;;;;;;;-3.76;100.00;95207.59;10452802;28;20052;-72
2020/12/01 20:19:48;;;;;;;58.85;27.15;;;;;;;-3.79;100.00;95209.56;10480204;28;20040;-72
2020/12/01 20:24:49;;;;;;;60.03;26.60;;;;;;;-3.72;100.00;95208.88;10454553;28;20063;-72
2020/12/01 20:29:50;;;;;;;57.92;26.98;;;;;;;-3.86;100.00;95205.19;10482938;28;20527;-72
2020/12/01 20:34:52;;;;;;;51.67;24.08;;;;;;;-3.83;100.00;95216.13;10472337;28;20032;-74
2020/12/01 20:40:20;;;;;;;44.22;21.50;;;;;;;-3.82;100.00;95207.28;10485385;28;20098;-74
2020/12/01 20:45:22;;;;;;;59.45;23.88;;;;;;;-3.91;100.00;95205.66;10487809;28;20123;-75
2020/12/01 20:50:23;;;;;;;43.53;22.58;;;;;;;-3.90;100.00;95209.94;10464917;28;20126;-75
2020/12/01 20:55:24;;;;;;;49.10;22.38;;;;;;;-3.91;100.00;95213.53;10446934;28;20037;-74
2020/12/01 21:00:25;;;;;;;45.85;23.17;;;;;;;-3.98;100.00;95212.59;10479051;28;20098;-74
2020/12/01 21:05:26;;;;;;;54.17;23.30;;;;;;;-3.91;100.00;95216.16;10477539;28;20033;-75
2020/12/01 21:10:27;;;;;;;55.45;28.13;;;;;;;-4.02;100.00;95222.63;10472574;28;20515;-75
2020/12/01 21:15:28;;;;;;;57.47;26.75;;;;;;;-4.01;100.00;95221.63;10483113;28;20037;-74
2020/12/01 21:20:29;;;;;;;51.97;26.33;;;;;;;-4.07;100.00;95226.75;10480265;28;20041;-74
2020/12/01 21:25:29;;;;;;;121.40;51.20;;;;;;;-4.20;100.00;95217.63;10487963;28;20028;-75
2020/12/01 21:30:40;;;;;;;57.33;24.88;;;;;;;-4.25;100.00;95221.75;10481363;28;20037;-75
2020/12/01 21:35:40;;;;;;;61.03;27.40;;;;;;;-4.35;100.00;95225.38;10471346;28;20115;-74
2020/12/01 21:40:41;;;;;;;64.97;27.30;;;;;;;-4.39;100.00;95229.31;10455333;28;20063;-75
2020/12/01 21:45:43;;;;;;;61.70;28.70;;;;;;;-4.52;100.00;95226.38;10487985;28;20387;-73
2020/12/01 21:50:43;;;;;;;57.08;28.05;;;;;;;-4.63;100.00;95228.38;10483951;28;20040;-73
2020/12/01 21:55:49;;;;;;;61.70;25.38;;;;;;;-4.60;100.00;95231.63;10485482;28;20507;-73
2020/12/01 22:01:11;;;;;;;49.42;23.02;;;;;;;-4.65;100.00;95230.34;10487622;28;20084;-73
2020/12/01 22:06:23;;;;;;;64.80;27.75;;;;;;;-4.77;100.00;95234.31;10486139;28;20032;-73
2020/12/01 22:11:43;;;;;;;58.28;27.23;;;;;;;-4.75;100.00;95232.31;10485284;28;20036;-73
2020/12/01 22:16:44;;;;;;;59.10;26.85;;;;;;;-4.71;100.00;95233.63;10485310;28;20053;-73
2020/12/01 22:22:11;;;;;;;63.47;26.80;;;;;;;-4.68;100.00;95229.84;10484589;28;20515;-73
2020/12/01 22:27:11;;;;;;;70.60;29.25;;;;;;;-4.63;100.00;95231.00;10484771;28;20059;-72
2020/12/01 22:32:21;;;;;;;78.60;32.78;;;;;;;-4.62;100.00;95226.56;10485659;28;20032;-72
2020/12/01 22:37:27;;;;;;;69.70;30.58;;;;;;;-4.66;100.00;95218.22;10483307;28;20044;-72
2020/12/01 22:42:42;;;;;;;81.85;33.10;;;;;;;-4.64;100.00;95216.25;10484162;28;20149;-76
2020/12/01 22:48:04;;;;;;;62.60;27.70;;;;;;;-4.63;100.00;95223.13;10475973;28;20031;-77
2020/12/01 22:53:23;;;;;;;62.35;28.45;;;;;;;-4.73;100.00;95219.88;10443370;28;20037;-76
2020/12/01 22:58:28;;;;;;;64.95;28.50;;;;;;;-4.78;100.00;95216.94;10442829;28;20036;-75
2020/12/01 23:03:34;;;;;;;59.28;30.10;;;;;;;-4.85;100.00;95208.09;10474517;28;20036;-75
2020/12/01 23:08:36;;;;;;;66.70;30.20;;;;;;;-4.83;100.00;95216.59;10484205;28;20036;-75
2020/12/01 23:13:50;;;;;;;58.63;27.35;;;;;;;-4.83;100.00;95214.81;10483478;28;20135;-76
2020/12/01 23:18:54;;;;;;;65.45;29.30;;;;;;;-4.89;100.00;95219.88;10484135;28;20059;-75
2020/12/01 23:23:54;;;;;;;67.20;31.45;;;;;;;-4.92;100.00;95214.97;10483754;28;20488;-75
2020/12/01 23:28:59;;;;;;;63.43;28.03;;;;;;;-4.91;100.00;95208.72;10484412;28;20032;-75
2020/12/01 23:34:00;;;;;;;62.75;27.73;;;;;;;-4.86;100.00;95212.50;10452787;28;20355;-74
2020/12/01 23:39:04;;;;;;;64.25;30.65;;;;;;;-4.80;100.00;95216.25;10444162;28;20025;-74
2020/12/01 23:44:23;;;;;;;76.55;28.00;;;;;;;-4.77;100.00;95210.72;10475791;28;20036;-74